createdAt,value
2023-01-20T00:00:54.370Z,9.73
2023-01-20T00:03:58.270Z,9.60
2023-01-20T00:07:02.554Z,8.88
2023-01-20T00:10:07.973Z,9.10
2023-01-20T00:13:11.014Z,9.27
2023-01-20T00:16:14.313Z,9.18
2023-01-20T00:19:17.567Z,8.52
2023-01-20T00:22:34.203Z,9.25
2023-01-20T00:25:37.249Z,9.63
2023-01-20T00:28:40.442Z,9.68
2023-01-20T00:31:44.492Z,9.23
2023-01-20T00:34:47.272Z,8.60
2023-01-20T00:37:50.443Z,8.60
2023-01-20T00:40:57.539Z,9.17
2023-01-20T00:44:01.304Z,8.80
2023-01-20T00:47:05.110Z,9.27
2023-01-20T00:50:11.391Z,9.48
2023-01-20T00:53:14.290Z,9.52
2023-01-20T00:56:20.720Z,8.77
2023-01-20T00:59:23.489Z,9.05
2023-01-20T01:02:26.789Z,9.18
2023-01-20T01:05:29.770Z,8.98
2023-01-20T01:08:35.563Z,8.05
2023-01-20T01:11:38.677Z,9.20
2023-01-20T01:14:42.467Z,8.85
2023-01-20T01:17:45.612Z,8.95
2023-01-20T01:20:48.691Z,8.73
2023-01-20T01:23:53.307Z,9.48
2023-01-20T01:26:56.088Z,9.10
2023-01-20T01:29:58.947Z,9.18
2023-01-20T01:33:01.752Z,8.57
2023-01-20T01:36:06.533Z,8.68
2023-01-20T01:39:09.636Z,9.15
2023-01-20T01:42:19.592Z,8.70
2023-01-20T01:45:26.192Z,8.68
2023-01-20T01:48:39.540Z,8.38
2023-01-20T01:51:58.432Z,8.90
2023-01-20T01:55:03.069Z,7.97
2023-01-20T01:58:13.830Z,8.87
2023-01-20T02:01:18.430Z,7.70
2023-01-20T02:04:24.721Z,7.85
2023-01-20T02:07:28.815Z,8.52
2023-01-20T02:10:32.420Z,7.82
2023-01-20T02:13:36.823Z,8.93
2023-01-20T02:16:59.133Z,8.70
2023-01-20T02:20:05.438Z,9.45
2023-01-20T02:23:38.453Z,8.90
2023-01-20T02:27:23.917Z,9.63
2023-01-20T02:30:51.820Z,7.70
2023-01-20T02:34:03.495Z,8.40
2023-01-20T02:37:14.655Z,8.75
2023-01-20T02:40:25.645Z,8.27
2023-01-20T02:43:48.496Z,8.07
2023-01-20T02:47:04.092Z,8.07
2023-01-20T02:50:14.063Z,8.93
2023-01-20T02:53:20.445Z,8.02
2023-01-20T02:56:28.352Z,8.20
2023-01-20T02:59:37.321Z,8.30
2023-01-20T03:02:42.933Z,8.33
2023-01-20T03:05:52.156Z,8.50
2023-01-20T03:08:56.643Z,8.88
2023-01-20T03:12:05.578Z,8.50
2023-01-20T03:15:10.070Z,7.87
2023-01-20T03:18:13.108Z,9.60
2023-01-20T03:21:19.345Z,9.77
2023-01-20T03:24:27.848Z,9.45
2023-01-20T03:27:30.722Z,8.85
2023-01-20T03:30:34.269Z,9.68
2023-01-20T03:33:37.031Z,9.93
2023-01-20T03:36:42.068Z,10.43
2023-01-20T03:39:45.149Z,9.80
2023-01-20T03:43:00.146Z,10.23
2023-01-20T03:46:14.745Z,11.45
2023-01-20T03:49:24.223Z,11.80
2023-01-20T03:52:46.502Z,13.38
2023-01-20T03:56:14.565Z,16.05
2023-01-20T03:59:20.502Z,18.00
2023-01-20T04:02:35.423Z,18.10
2023-01-20T04:05:41.923Z,12.53
2023-01-20T04:08:57.186Z,10.60
2023-01-20T04:12:00.189Z,10.27
2023-01-20T04:15:03.135Z,10.55
2023-01-20T04:18:25.743Z,9.75
2023-01-20T04:21:37.028Z,11.03
2023-01-20T04:25:00.147Z,10.60
2023-01-20T04:28:03.091Z,11.12
2023-01-20T04:31:18.102Z,11.48
2023-01-20T04:34:28.452Z,10.88
2023-01-20T04:37:33.525Z,10.67
2023-01-20T04:40:36.430Z,11.07
2023-01-20T04:43:44.186Z,10.95
2023-01-20T04:46:47.528Z,10.65
2023-01-20T04:49:51.059Z,9.93
2023-01-20T04:52:59.359Z,10.53
2023-01-20T04:56:04.119Z,10.67
2023-01-20T04:59:08.404Z,10.07
2023-01-20T05:02:13.043Z,11.35
2023-01-20T05:05:18.044Z,11.18
2023-01-20T05:08:23.864Z,11.23
2023-01-20T05:11:33.348Z,11.65
2023-01-20T05:14:37.956Z,11.98
2023-01-20T05:17:41.587Z,11.63
2023-01-20T05:20:46.316Z,10.95
2023-01-20T05:23:50.506Z,10.77
2023-01-20T05:26:53.795Z,11.27
2023-01-20T05:29:56.425Z,11.35
2023-01-20T05:32:59.470Z,11.82
2023-01-20T05:36:07.676Z,13.18
2023-01-20T05:39:11.898Z,11.87
2023-01-20T05:42:17.593Z,11.90
2023-01-20T05:45:34.411Z,12.77
2023-01-20T05:48:41.283Z,12.25
2023-01-20T05:51:45.258Z,12.02
2023-01-20T05:54:49.774Z,12.27
2023-01-20T05:57:52.886Z,13.53
2023-01-20T06:00:55.815Z,14.50
2023-01-20T06:03:58.727Z,14.02
2023-01-20T06:07:01.754Z,12.63
2023-01-20T06:10:09.027Z,12.07
2023-01-20T06:13:18.407Z,11.52
2023-01-20T06:16:23.291Z,12.02
2023-01-20T06:19:32.354Z,11.80
2023-01-20T06:22:41.423Z,11.32
2023-01-20T06:25:45.624Z,12.33
2023-01-20T06:28:49.527Z,11.67
2023-01-20T06:31:53.753Z,12.48
2023-01-20T06:35:00.984Z,11.02
2023-01-20T06:38:14.427Z,10.75
2023-01-20T06:41:25.256Z,10.30
2023-01-20T06:44:33.412Z,11.23
2023-01-20T06:47:38.184Z,11.07
2023-01-20T06:50:43.478Z,12.63
2023-01-20T06:53:48.537Z,11.95
2023-01-20T06:56:53.371Z,12.37
2023-01-20T06:59:59.353Z,11.37
2023-01-20T07:03:04.781Z,10.98
2023-01-20T07:06:14.352Z,11.00
2023-01-20T07:09:18.473Z,10.57
2023-01-20T07:12:28.101Z,10.37
2023-01-20T07:15:34.790Z,10.30
2023-01-20T07:18:42.678Z,10.30
2023-01-20T07:21:50.233Z,10.70
2023-01-20T07:24:53.867Z,10.30
2023-01-20T07:27:59.334Z,9.87
2023-01-20T07:31:11.951Z,10.43
2023-01-20T07:34:17.732Z,10.27
2023-01-20T07:37:21.820Z,9.95
2023-01-20T07:40:25.586Z,10.18
2023-01-20T07:43:29.023Z,11.07
2023-01-20T07:46:35.437Z,12.77
2023-01-20T07:49:39.109Z,13.65
2023-01-20T07:52:44.354Z,13.20
2023-01-20T07:55:48.607Z,13.10
2023-01-20T07:59:01.340Z,11.80
2023-01-20T08:02:06.485Z,14.00
2023-01-20T08:05:16.502Z,14.87
2023-01-20T08:08:19.295Z,12.95
2023-01-20T08:11:23.855Z,12.23
2023-01-20T08:14:27.585Z,12.80
2023-01-20T08:17:36.272Z,12.77
2023-01-20T08:20:41.767Z,12.07
2023-01-20T08:23:50.859Z,11.45
2023-01-20T08:26:53.522Z,10.30
2023-01-20T08:29:57.844Z,10.80
2023-01-20T08:33:08.408Z,10.97
2023-01-20T08:36:31.316Z,9.98
2023-01-20T08:39:36.470Z,9.30
2023-01-20T08:42:42.881Z,9.93
2023-01-20T08:45:48.174Z,8.63
2023-01-20T08:48:53.045Z,9.83
2023-01-20T08:52:10.730Z,10.02
2023-01-20T08:55:17.424Z,9.50
2023-01-20T08:58:27.634Z,9.98
2023-01-20T09:01:38.346Z,11.97
2023-01-20T09:04:42.531Z,10.57
2023-01-20T09:07:47.253Z,10.00
2023-01-20T09:11:09.665Z,10.45
2023-01-20T09:14:25.679Z,10.48
2023-01-20T09:17:29.027Z,13.17
2023-01-20T09:20:32.478Z,11.27
2023-01-20T09:23:42.500Z,12.07
2023-01-20T09:26:52.381Z,12.27
2023-01-20T09:30:09.614Z,12.93
2023-01-20T09:33:15.646Z,10.20
2023-01-20T09:36:18.616Z,11.20
2023-01-20T09:39:41.115Z,11.07
2023-01-20T09:43:34.064Z,9.05
2023-01-20T09:46:40.141Z,9.13
2023-01-20T09:50:09.039Z,9.33
2023-01-20T09:53:46.769Z,11.47
2023-01-20T09:56:55.511Z,11.20
2023-01-20T10:00:11.793Z,10.68
2023-01-20T10:03:47.329Z,10.95
2023-01-20T10:06:59.911Z,9.60
2023-01-20T10:10:26.603Z,10.23
2023-01-20T10:13:41.088Z,10.10
2023-01-20T10:16:54.470Z,10.00
2023-01-20T10:20:04.581Z,9.95
2023-01-20T10:23:15.455Z,9.90
2023-01-20T10:26:39.311Z,10.17
2023-01-20T10:29:48.017Z,8.90
2023-01-20T10:33:01.470Z,8.65
2023-01-20T10:36:15.859Z,9.48
2023-01-20T10:39:35.367Z,9.40
2023-01-20T10:42:40.523Z,9.00
2023-01-20T10:45:59.021Z,9.00
2023-01-20T10:49:37.201Z,8.65
2023-01-20T10:53:02.380Z,9.05
2023-01-20T10:56:25.901Z,9.77
2023-01-20T10:59:35.382Z,10.17
2023-01-20T11:02:50.530Z,9.68
2023-01-20T11:05:54.306Z,8.63
2023-01-20T11:09:19.666Z,8.98
2023-01-20T11:12:27.618Z,8.33
2023-01-20T11:15:37.379Z,9.10
2023-01-20T11:18:40.111Z,9.40
2023-01-20T11:21:47.285Z,9.52
2023-01-20T11:24:56.043Z,9.27
2023-01-20T11:28:18.121Z,8.73
2023-01-20T11:31:33.077Z,8.33
2023-01-20T11:34:37.169Z,7.90
2023-01-20T11:37:45.301Z,7.10
2023-01-20T11:40:57.412Z,7.15
2023-01-20T11:44:01.576Z,7.63
2023-01-20T11:47:25.082Z,7.20
2023-01-20T11:50:36.727Z,6.45
2023-01-20T11:53:39.913Z,6.93
2023-01-20T11:56:45.771Z,6.80
2023-01-20T11:59:58.201Z,7.80
2023-01-20T12:03:20.314Z,6.43
2023-01-20T12:06:44.108Z,6.75
2023-01-20T12:09:53.521Z,5.90
2023-01-20T12:13:18.568Z,6.03
2023-01-20T12:16:32.240Z,6.00
2023-01-20T12:19:55.682Z,5.87
2023-01-20T12:23:26.109Z,5.30
2023-01-20T12:26:36.597Z,6.15
2023-01-20T12:29:47.280Z,6.15
2023-01-20T12:32:50.946Z,6.33
2023-01-20T12:36:25.301Z,6.10
2023-01-20T12:39:51.913Z,7.00
2023-01-20T12:43:19.618Z,6.60
2023-01-20T12:46:23.671Z,6.12
2023-01-20T12:49:36.636Z,6.13
2023-01-20T12:52:53.372Z,6.27
2023-01-20T12:56:34.629Z,6.45
2023-01-20T13:00:17.999Z,5.80
2023-01-20T13:03:56.471Z,5.47
2023-01-20T13:07:31.330Z,5.20
2023-01-20T13:10:51.206Z,6.00
2023-01-20T13:14:12.023Z,6.07
2023-01-20T13:17:40.248Z,6.45
2023-01-20T13:20:50.728Z,5.85
2023-01-20T13:24:02.617Z,5.80
2023-01-20T13:27:33.223Z,6.30
2023-01-20T13:30:48.385Z,5.53
2023-01-20T13:33:56.481Z,6.40
2023-01-20T13:37:07.425Z,6.37
2023-01-20T13:40:50.514Z,11.40
2023-01-20T13:44:02.208Z,13.30
2023-01-20T13:47:11.068Z,13.43
2023-01-20T13:50:33.905Z,12.45
2023-01-20T13:53:37.848Z,13.70
2023-01-20T13:56:50.215Z,12.87
2023-01-20T13:59:57.553Z,13.30
2023-01-20T14:03:14.640Z,13.15
2023-01-20T14:06:24.130Z,13.48
2023-01-20T14:09:27.886Z,14.90
2023-01-20T14:12:43.511Z,14.97
2023-01-20T14:15:58.406Z,14.07
2023-01-20T14:19:33.245Z,14.57
2023-01-20T14:22:38.494Z,14.20
2023-01-20T14:26:00.322Z,13.57
2023-01-20T14:29:14.183Z,13.33
2023-01-20T14:32:34.376Z,13.70
2023-01-20T14:35:51.776Z,11.52
2023-01-20T14:38:58.934Z,12.23
2023-01-20T14:42:14.213Z,12.50
2023-01-20T14:45:32.522Z,12.03
2023-01-20T14:48:59.545Z,11.93
2023-01-20T14:52:13.356Z,12.15
2023-01-20T14:55:47.212Z,10.60
2023-01-20T14:59:00.710Z,11.07
2023-01-20T15:02:15.732Z,11.93
2023-01-20T15:05:28.788Z,12.27
2023-01-20T15:08:39.335Z,11.90
2023-01-20T15:11:51.320Z,12.18
2023-01-20T15:15:21.950Z,11.85
2023-01-20T15:18:27.312Z,12.57
2023-01-20T15:21:38.440Z,13.65
2023-01-20T15:24:47.626Z,13.73
2023-01-20T15:27:56.617Z,12.02
2023-01-20T15:31:13.635Z,13.27
2023-01-20T15:34:32.401Z,12.33
2023-01-20T15:37:45.248Z,12.93
2023-01-20T15:40:56.483Z,13.82
2023-01-20T15:44:18.364Z,12.85
2023-01-20T15:47:35.868Z,13.18
2023-01-20T15:50:42.172Z,12.87
2023-01-20T15:53:47.385Z,12.45
2023-01-20T15:56:50.559Z,14.23
2023-01-20T16:00:07.265Z,14.25
2023-01-20T16:03:16.389Z,13.27
2023-01-20T16:06:41.185Z,15.07
2023-01-20T16:09:53.251Z,14.77
2023-01-20T16:13:16.456Z,13.70
2023-01-20T16:16:34.264Z,13.80
2023-01-20T16:19:54.223Z,13.00
2023-01-20T16:23:19.205Z,14.60
2023-01-20T16:26:36.240Z,14.73
2023-01-20T16:29:47.216Z,13.85
2023-01-20T16:32:52.213Z,15.52
2023-01-20T16:35:57.267Z,14.95
2023-01-20T16:39:09.164Z,14.97
2023-01-20T16:42:23.212Z,14.07
2023-01-20T16:45:34.798Z,15.55
2023-01-20T16:48:46.232Z,14.82
2023-01-20T16:52:02.239Z,15.82
2023-01-20T16:55:22.389Z,14.30
2023-01-20T16:58:27.517Z,13.40
2023-01-20T17:01:33.274Z,16.05
2023-01-20T17:04:39.001Z,15.30
2023-01-20T17:07:58.281Z,14.63
2023-01-20T17:11:05.254Z,14.57
2023-01-20T17:14:13.298Z,14.87
2023-01-20T17:17:18.557Z,16.12
2023-01-20T17:20:35.549Z,14.57
2023-01-20T17:23:46.734Z,13.37
2023-01-20T17:26:58.194Z,15.52
2023-01-20T17:30:09.330Z,14.32
2023-01-20T17:33:17.373Z,14.95
2023-01-20T17:36:38.188Z,14.98
2023-01-20T17:39:47.960Z,14.57
2023-01-20T17:42:59.945Z,14.25
2023-01-20T17:46:20.703Z,14.87
2023-01-20T17:49:38.170Z,14.25
2023-01-20T17:52:55.990Z,14.18
2023-01-20T17:56:11.882Z,14.23
2023-01-20T17:59:27.518Z,14.05
2023-01-20T18:02:32.387Z,14.50
2023-01-20T18:05:44.204Z,13.57
2023-01-20T18:09:09.219Z,14.87
2023-01-20T18:12:16.499Z,13.95
2023-01-20T18:15:21.489Z,14.50
2023-01-20T18:18:32.169Z,14.80
2023-01-20T18:21:39.403Z,14.10
2023-01-20T18:24:52.316Z,15.20
2023-01-20T18:28:03.303Z,14.10
2023-01-20T18:31:19.260Z,13.98
2023-01-20T18:34:28.322Z,14.00
2023-01-20T18:37:34.432Z,13.23
2023-01-20T18:40:48.637Z,12.87
2023-01-20T18:44:06.577Z,13.00
2023-01-20T18:47:24.216Z,13.80
2023-01-20T18:50:29.315Z,13.57
2023-01-20T18:53:38.801Z,14.18
2023-01-20T18:56:50.811Z,12.10
2023-01-20T19:00:06.296Z,13.77
2023-01-20T19:03:15.371Z,13.95
2023-01-20T19:06:23.449Z,13.20
2023-01-20T19:09:28.282Z,13.23
2023-01-20T19:12:33.339Z,12.77
2023-01-20T19:15:38.286Z,13.50
2023-01-20T19:18:59.551Z,13.43
2023-01-20T19:22:09.946Z,12.98
2023-01-20T19:25:18.378Z,13.18
2023-01-20T19:28:25.313Z,12.73
2023-01-20T19:31:34.350Z,13.18
2023-01-20T19:34:40.323Z,14.30
2023-01-20T19:37:54.761Z,14.60
2023-01-20T19:41:17.313Z,14.65
2023-01-20T19:44:21.692Z,14.57
2023-01-20T19:47:31.573Z,13.35
2023-01-20T19:50:42.278Z,12.95
2023-01-20T19:53:57.186Z,13.65
2023-01-20T19:57:05.311Z,11.40
2023-01-20T20:00:12.443Z,11.70
2023-01-20T20:03:21.762Z,12.57
2023-01-20T20:06:35.949Z,12.18
2023-01-20T20:09:41.082Z,11.93
2023-01-20T20:12:47.333Z,12.40
2023-01-20T20:16:02.091Z,12.90
2023-01-20T20:19:18.910Z,11.80
2023-01-20T20:22:26.337Z,10.27
2023-01-20T20:25:33.708Z,11.63
2023-01-20T20:28:53.185Z,11.05
2023-01-20T20:32:02.438Z,11.93
2023-01-20T20:35:17.273Z,11.73
2023-01-20T20:38:21.797Z,10.65
2023-01-20T20:41:32.068Z,12.57
2023-01-20T20:44:42.312Z,12.70
2023-01-20T20:47:49.334Z,11.35
2023-01-20T20:51:09.462Z,12.35
2023-01-20T20:54:17.347Z,11.27
2023-01-20T20:57:21.182Z,10.53
2023-01-20T21:00:30.496Z,10.40
2023-01-20T21:03:36.606Z,12.15
2023-01-20T21:06:48.405Z,10.95
2023-01-20T21:09:54.538Z,10.13
2023-01-20T21:13:03.226Z,11.40
2023-01-20T21:16:15.913Z,11.45
2023-01-20T21:19:33.264Z,11.73
2023-01-20T21:22:41.594Z,10.93
2023-01-20T21:25:51.432Z,10.88
2023-01-20T21:29:06.469Z,10.97
2023-01-20T21:32:15.201Z,12.07
2023-01-20T21:35:27.406Z,10.75
2023-01-20T21:38:32.981Z,10.60
2023-01-20T21:41:48.172Z,11.43
2023-01-20T21:44:53.418Z,11.23
2023-01-20T21:48:16.903Z,11.57
2023-01-20T21:51:39.152Z,11.73
2023-01-20T21:54:45.510Z,10.80
2023-01-20T21:57:51.552Z,11.12
2023-01-20T22:00:56.805Z,11.00
2023-01-20T22:04:07.184Z,12.15
2023-01-20T22:07:11.310Z,11.12
2023-01-20T22:10:21.374Z,12.05
2023-01-20T22:13:29.246Z,11.33
2023-01-20T22:16:34.332Z,10.88
2023-01-20T22:19:38.261Z,11.27
2023-01-20T22:22:44.954Z,11.00
2023-01-20T22:25:56.652Z,11.57
2023-01-20T22:29:12.613Z,10.63
2023-01-20T22:32:18.909Z,11.70
2023-01-20T22:35:27.363Z,11.40
2023-01-20T22:38:31.004Z,11.15
2023-01-20T22:41:37.474Z,10.93
2023-01-20T22:44:42.146Z,11.60
2023-01-20T22:47:50.138Z,11.85
2023-01-20T22:51:10.604Z,11.55
2023-01-20T22:54:15.317Z,11.77
2023-01-20T22:57:18.521Z,11.45
2023-01-20T23:00:25.139Z,11.10
2023-01-20T23:03:28.848Z,10.35
2023-01-20T23:06:40.224Z,10.65
2023-01-20T23:09:46.907Z,11.75
2023-01-20T23:12:55.147Z,10.75
2023-01-20T23:15:59.629Z,10.90
2023-01-20T23:19:03.694Z,10.85
2023-01-20T23:22:07.732Z,11.23
2023-01-20T23:25:10.820Z,10.32
2023-01-20T23:28:17.062Z,11.23
2023-01-20T23:31:28.538Z,11.43
2023-01-20T23:34:32.546Z,10.15
2023-01-20T23:37:39.287Z,10.68
2023-01-20T23:40:43.455Z,11.60
2023-01-20T23:43:48.041Z,12.00
2023-01-20T23:46:51.106Z,12.73
2023-01-20T23:49:53.986Z,11.40
2023-01-20T23:52:58.270Z,12.57
2023-01-20T23:56:10.100Z,10.80
2023-01-20T23:59:13.280Z,12.37
